Time;durP1;ratioP1;P1;durP2;ratioP2;P2;SDS_P1;SDS_P2;PMS_P1;PMS_P2;Temp;Humidity;BMP_temperature;BMP_pressure;BME280_temperature;BME280_humidity;BME280_pressure;Samples;Min_cycle;Max_cycle;Signal;HPM_P1;HPM_P2
2023/06/15 00:00:57;;;;;;;6.53;2.15;;;16.30;99.90;;;;;;5102231;28;20044;-84
2023/06/15 00:03:24;;;;;;;6.57;2.10;;;16.30;99.90;;;;;;5094524;28;20036;-84
2023/06/15 00:05:51;;;;;;;4.60;2.35;;;16.30;99.90;;;;;;5095510;28;20036;-85
2023/06/15 00:08:18;;;;;;;3.83;2.05;;;16.20;99.90;;;;;;5095335;28;20092;-85
2023/06/15 00:10:45;;;;;;;5.45;2.58;;;16.20;99.90;;;;;;5112072;28;20040;-85
2023/06/15 00:13:12;;;;;;;7.10;2.65;;;16.20;99.90;;;;;;5110651;28;20607;-85
2023/06/15 00:15:41;;;;;;;5.28;2.00;;;16.20;99.90;;;;;;5075068;28;20028;-85
2023/06/15 00:18:08;;;;;;;5.47;2.13;;;16.10;99.90;;;;;;5058870;28;20044;-84
2023/06/15 00:20:35;;;;;;;4.72;2.20;;;16.10;99.90;;;;;;5058671;28;20489;-85
2023/06/15 00:23:02;;;;;;;6.25;2.28;;;16.10;99.90;;;;;;5058285;28;20040;-85
2023/06/15 00:25:30;;;;;;;6.40;2.38;;;16.00;99.90;;;;;;5058982;28;20040;-85
2023/06/15 00:27:57;;;;;;;5.45;2.30;;;16.00;99.90;;;;;;5075061;28;20131;-84
2023/06/15 00:30:23;;;;;;;6.22;2.60;;;15.90;99.90;;;;;;5058283;28;20127;-85
2023/06/15 00:32:50;;;;;;;7.50;2.58;;;15.90;99.90;;;;;;5059765;28;20044;-84
2023/06/15 00:35:16;;;;;;;6.15;2.42;;;15.90;99.90;;;;;;5074794;28;20086;-85
2023/06/15 00:37:43;;;;;;;6.80;2.25;;;15.80;99.90;;;;;;5075088;28;20036;-85
2023/06/15 00:40:10;;;;;;;5.15;2.40;;;15.80;99.90;;;;;;5074204;28;20125;-85
2023/06/15 00:42:37;;;;;;;7.10;2.53;;;15.70;99.90;;;;;;5075037;28;20036;-84
2023/06/15 00:45:06;;;;;;;9.38;2.30;;;15.70;99.90;;;;;;5074576;28;20059;-85
2023/06/15 00:47:38;;;;;;;6.88;2.47;;;15.60;99.90;;;;;;5090943;28;20056;-85
2023/06/15 00:50:14;;;;;;;7.53;2.53;;;15.60;99.90;;;;;;5090946;28;20082;-84
2023/06/15 00:52:42;;;;;;;5.30;2.63;;;15.60;99.90;;;;;;5098887;28;20052;-85
2023/06/15 00:55:12;;;;;;;8.43;2.58;;;15.50;99.90;;;;;;5110941;28;20044;-84
2023/06/15 00:57:44;;;;;;;6.43;2.75;;;15.50;99.90;;;;;;5110932;28;20461;-85
2023/06/15 01:00:14;;;;;;;7.75;2.90;;;15.50;99.90;;;;;;5094559;28;20505;-84
2023/06/15 01:02:41;;;;;;;5.70;2.60;;;15.40;99.90;;;;;;5094064;28;20475;-85
2023/06/15 01:05:12;;;;;;;6.95;2.92;;;15.40;99.90;;;;;;5077364;28;20072;-87
2023/06/15 01:07:40;;;;;;;6.18;2.60;;;15.30;99.90;;;;;;5110908;28;20078;-85
2023/06/15 01:10:12;;;;;;;6.47;2.50;;;15.30;99.90;;;;;;5110703;28;20034;-85
2023/06/15 01:12:41;;;;;;;7.72;2.80;;;15.30;99.90;;;;;;5110716;28;20098;-86
2023/06/15 01:15:08;;;;;;;6.47;2.85;;;15.20;99.90;;;;;;5110582;28;20147;-85
2023/06/15 01:17:44;;;;;;;6.28;2.75;;;15.20;99.90;;;;;;5093792;28;20040;-85
2023/06/15 01:20:17;;;;;;;6.60;3.00;;;15.20;99.90;;;;;;5110410;28;20041;-85
2023/06/15 01:23:25;;;;;;;4.43;2.42;;;15.20;99.90;;;;;;5110521;28;20115;-85
2023/06/15 01:26:06;;;;;;;8.55;2.92;;;15.20;99.90;;;;;;5110780;28;20093;-85
2023/06/15 01:28:35;;;;;;;5.68;2.80;;;15.10;99.90;;;;;;5110696;28;20083;-85
2023/06/15 01:31:05;;;;;;;6.90;2.95;;;15.10;99.90;;;;;;5110419;28;20067;-85
2023/06/15 01:33:31;;;;;;;7.60;2.90;;;15.10;99.90;;;;;;5093666;28;20119;-85
2023/06/15 01:35:59;;;;;;;10.20;3.00;;;15.00;99.90;;;;;;5093623;28;20128;-85
2023/06/15 01:38:28;;;;;;;6.47;2.88;;;15.00;99.90;;;;;;5110149;28;20032;-85
2023/06/15 01:40:56;;;;;;;9.70;2.80;;;15.00;99.90;;;;;;5110003;28;20438;-85
2023/06/15 01:43:26;;;;;;;6.53;2.90;;;15.00;99.90;;;;;;5109794;28;20170;-85
2023/06/15 01:45:55;;;;;;;7.97;3.20;;;15.00;99.90;;;;;;5110012;28;20090;-85
2023/06/15 01:48:22;;;;;;;5.70;2.80;;;15.00;99.90;;;;;;5092922;28;20400;-85
2023/06/15 01:50:49;;;;;;;7.13;3.10;;;14.90;99.90;;;;;;5093434;28;20044;-85
2023/06/15 01:53:16;;;;;;;6.20;2.95;;;14.90;99.90;;;;;;5109469;28;20141;-85
2023/06/15 01:55:44;;;;;;;8.23;2.80;;;14.90;99.90;;;;;;5077167;28;20052;-85
2023/06/15 01:58:15;;;;;;;7.63;3.03;;;14.90;99.90;;;;;;5109861;28;20039;-85
2023/06/15 02:00:43;;;;;;;7.15;3.03;;;14.90;99.90;;;;;;5126602;28;20097;-85
2023/06/15 02:03:11;;;;;;;7.70;3.30;;;14.80;99.90;;;;;;5093303;28;20122;-85
2023/06/15 02:05:41;;;;;;;7.72;3.05;;;14.80;99.90;;;;;;5109748;28;20484;-85
2023/06/15 02:08:12;;;;;;;5.68;3.05;;;14.80;99.90;;;;;;5093680;28;20488;-85
2023/06/15 02:10:39;;;;;;;5.78;3.28;;;14.80;99.90;;;;;;5109782;28;20036;-85
2023/06/15 02:13:11;;;;;;;5.53;3.13;;;14.80;99.90;;;;;;5093580;28;20035;-85
2023/06/15 02:15:38;;;;;;;6.55;2.90;;;14.80;99.90;;;;;;5093476;28;20036;-85
2023/06/15 02:18:12;;;;;;;7.68;3.40;;;14.80;99.90;;;;;;5110059;28;20046;-85
2023/06/15 02:20:40;;;;;;;6.55;3.60;;;14.80;99.90;;;;;;5109695;28;20093;-85
2023/06/15 02:23:07;;;;;;;7.78;3.22;;;14.80;99.90;;;;;;5091518;28;20512;-85
2023/06/15 02:25:34;;;;;;;8.38;3.40;;;14.70;99.90;;;;;;5108666;28;20155;-85
2023/06/15 02:28:00;;;;;;;5.28;3.10;;;14.70;99.90;;;;;;5076868;28;20460;-85
2023/06/15 02:30:27;;;;;;;7.70;3.20;;;14.70;99.90;;;;;;5092736;28;20047;-85
2023/06/15 02:32:55;;;;;;;6.97;3.55;;;14.70;99.90;;;;;;5126263;28;20040;-85
2023/06/15 02:35:22;;;;;;;11.45;3.50;;;14.60;99.90;;;;;;5092597;28;20043;-85
2023/06/15 02:37:48;;;;;;;6.50;3.42;;;14.60;99.90;;;;;;5093177;28;20032;-84
2023/06/15 02:40:15;;;;;;;6.65;3.40;;;14.60;99.90;;;;;;5076274;28;20460;-84
2023/06/15 02:42:42;;;;;;;8.50;3.45;;;14.60;99.90;;;;;;5083338;28;20036;-85
2023/06/15 02:45:10;;;;;;;7.00;3.60;;;14.60;99.90;;;;;;5101289;28;20047;-84
2023/06/15 02:47:37;;;;;;;6.65;3.60;;;14.50;99.90;;;;;;5092486;28;20040;-85
2023/06/15 02:50:05;;;;;;;7.13;3.50;;;14.60;99.90;;;;;;5075585;28;20047;-85
2023/06/15 02:52:31;;;;;;;7.95;3.90;;;14.60;99.90;;;;;;5099246;28;20160;-85
2023/06/15 02:54:58;;;;;;;10.32;3.45;;;14.50;99.90;;;;;;5129730;28;20081;-85
2023/06/15 02:57:26;;;;;;;10.20;3.30;;;14.50;99.90;;;;;;5112523;28;20043;-85
2023/06/15 02:59:53;;;;;;;5.85;3.40;;;14.50;99.90;;;;;;5113093;28;20052;-85
2023/06/15 03:02:23;;;;;;;7.13;3.17;;;14.50;99.90;;;;;;5146276;28;20051;-85
2023/06/15 03:04:50;;;;;;;10.77;3.30;;;14.40;99.90;;;;;;5113299;28;20476;-85
2023/06/15 03:07:20;;;;;;;6.55;3.25;;;14.40;99.90;;;;;;5113095;28;20044;-85
2023/06/15 03:09:47;;;;;;;7.55;3.60;;;14.40;99.90;;;;;;5128864;28;20488;-85
2023/06/15 03:12:14;;;;;;;5.47;3.03;;;14.40;99.90;;;;;;5129546;28;20093;-85
2023/06/15 03:14:44;;;;;;;6.22;3.22;;;14.30;99.90;;;;;;5129365;28;20484;-85
2023/06/15 03:17:12;;;;;;;7.45;3.38;;;14.30;99.90;;;;;;5096642;28;20051;-85
2023/06/15 03:19:40;;;;;;;7.95;3.63;;;14.30;99.90;;;;;;5112879;28;20079;-85
2023/06/15 03:22:10;;;;;;;11.63;3.20;;;14.30;99.90;;;;;;5112883;28;20067;-85
2023/06/15 03:24:36;;;;;;;9.00;3.65;;;14.30;99.90;;;;;;5112697;28;20032;-85
2023/06/15 03:27:06;;;;;;;5.43;3.25;;;14.30;99.90;;;;;;5096076;28;20047;-85
2023/06/15 03:29:36;;;;;;;9.05;3.33;;;14.30;99.90;;;;;;5112632;28;20039;-85
2023/06/15 03:32:08;;;;;;;6.43;3.33;;;14.20;99.90;;;;;;5113181;28;20036;-85
2023/06/15 03:34:35;;;;;;;6.53;3.42;;;14.30;99.90;;;;;;5129092;28;20488;-85
2023/06/15 03:37:02;;;;;;;6.07;3.17;;;14.30;99.90;;;;;;5114857;28;20457;-85
2023/06/15 03:39:29;;;;;;;6.97;3.70;;;14.20;99.90;;;;;;5115836;28;20039;-85
2023/06/15 03:41:56;;;;;;;5.30;3.00;;;14.20;99.90;;;;;;5099328;28;20035;-85
2023/06/15 03:44:22;;;;;;;8.65;3.53;;;14.20;99.90;;;;;;5099204;28;20113;-85
2023/06/15 03:46:49;;;;;;;7.68;3.20;;;14.20;99.90;;;;;;5115624;28;20089;-84
2023/06/15 03:49:16;;;;;;;5.50;3.03;;;14.20;99.90;;;;;;5099561;28;20035;-85
2023/06/15 03:51:43;;;;;;;7.22;3.42;;;14.20;99.90;;;;;;5115405;28;20054;-85
2023/06/15 03:54:10;;;;;;;9.23;3.30;;;14.20;99.90;;;;;;5136568;27;20495;-85
2023/06/15 03:56:36;;;;;;;9.70;3.45;;;14.20;99.90;;;;;;5102616;27;20043;-85
2023/06/15 03:59:03;;;;;;;6.32;3.60;;;14.20;99.90;;;;;;5119451;27;20096;-85
2023/06/15 04:01:30;;;;;;;5.72;3.40;;;14.20;99.90;;;;;;5118712;27;20406;-84
2023/06/15 04:03:56;;;;;;;6.13;3.38;;;14.20;99.90;;;;;;5102661;27;20047;-85
2023/06/15 04:06:24;;;;;;;7.63;3.47;;;14.20;99.90;;;;;;5102380;27;20399;-85
2023/06/15 04:08:51;;;;;;;8.82;3.15;;;14.20;99.90;;;;;;5103197;27;20046;-85
2023/06/15 04:11:18;;;;;;;6.45;3.10;;;14.20;99.90;;;;;;5119413;27;20399;-85
2023/06/15 04:13:45;;;;;;;7.72;3.20;;;14.20;99.90;;;;;;5119155;27;20153;-85
2023/06/15 04:16:12;;;;;;;7.00;3.00;;;14.20;99.90;;;;;;5118733;27;20471;-85
2023/06/15 04:18:38;;;;;;;5.30;3.10;;;14.20;99.90;;;;;;5101894;27;20046;-85
2023/06/15 04:21:05;;;;;;;7.35;3.55;;;14.20;99.90;;;;;;5102486;27;20046;-85
2023/06/15 04:23:32;;;;;;;8.38;3.20;;;14.20;99.90;;;;;;5119095;27;20099;-85
2023/06/15 04:26:00;;;;;;;8.50;3.20;;;14.20;99.90;;;;;;5102261;27;20103;-85
2023/06/15 04:28:27;;;;;;;4.95;3.08;;;14.30;99.90;;;;;;5102466;27;20042;-84
2023/06/15 04:31:10;;;;;;;8.00;3.55;;;14.30;99.90;;;;;;5101797;27;20039;-85
2023/06/15 04:33:42;;;;;;;7.88;3.40;;;14.40;99.90;;;;;;5135407;27;20043;-85
2023/06/15 04:36:13;;;;;;;7.25;3.13;;;14.40;99.90;;;;;;5135488;27;20057;-85
2023/06/15 04:38:48;;;;;;;5.72;3.42;;;14.50;99.90;;;;;;5118889;27;20035;-85
2023/06/15 04:41:16;;;;;;;5.97;3.33;;;14.50;99.90;;;;;;5135548;27;20126;-85
2023/06/15 04:43:43;;;;;;;7.85;3.38;;;14.50;99.90;;;;;;5118447;27;20090;-85
2023/06/15 04:46:11;;;;;;;8.00;3.30;;;14.50;99.90;;;;;;5118253;27;20079;-85
2023/06/15 04:48:43;;;;;;;7.20;3.58;;;14.60;99.90;;;;;;5133769;27;20039;-85
2023/06/15 04:51:13;;;;;;;6.82;3.40;;;14.60;99.90;;;;;;5118838;27;20059;-85
2023/06/15 04:53:43;;;;;;;6.40;3.47;;;14.70;99.90;;;;;;5114330;27;20083;-84
2023/06/15 04:56:11;;;;;;;6.07;3.40;;;14.80;99.90;;;;;;5129541;27;20043;-85
2023/06/15 04:58:38;;;;;;;6.55;2.83;;;14.80;99.90;;;;;;5125174;27;20123;-85
2023/06/15 05:01:06;;;;;;;6.82;3.10;;;14.80;99.90;;;;;;5134909;27;20133;-85
2023/06/15 05:03:33;;;;;;;6.75;3.53;;;14.90;99.90;;;;;;5134927;27;20043;-85
2023/06/15 05:06:00;;;;;;;6.55;3.47;;;15.00;99.90;;;;;;5141562;28;20110;-85
2023/06/15 05:08:27;;;;;;;7.70;3.00;;;15.00;99.90;;;;;;5097752;28;20127;-86
2023/06/15 05:10:55;;;;;;;6.68;3.22;;;15.00;99.90;;;;;;5097328;28;20042;-85
2023/06/15 05:13:21;;;;;;;6.57;3.28;;;15.10;99.90;;;;;;5097755;28;20039;-85
2023/06/15 05:15:48;;;;;;;6.30;2.88;;;15.10;99.90;;;;;;5123969;27;20041;-85
2023/06/15 05:18:15;;;;;;;6.70;2.95;;;15.20;99.90;;;;;;5100992;27;20046;-85
2023/06/15 05:20:41;;;;;;;6.65;3.00;;;15.20;99.90;;;;;;5134068;27;20081;-84
2023/06/15 05:23:08;;;;;;;6.43;2.83;;;15.30;99.90;;;;;;5101049;27;20047;-85
2023/06/15 05:25:35;;;;;;;6.80;3.05;;;15.40;99.90;;;;;;5128843;28;20487;-85
2023/06/15 05:28:02;;;;;;;5.13;3.10;;;15.40;99.90;;;;;;5104322;28;20039;-85
2023/06/15 05:30:31;;;;;;;7.13;3.10;;;15.50;99.90;;;;;;5098435;28;20035;-85
2023/06/15 05:32:58;;;;;;;7.03;3.05;;;15.50;99.90;;;;;;5080447;28;20092;-85
2023/06/15 05:35:25;;;;;;;11.55;3.13;;;15.60;99.90;;;;;;5115250;27;20036;-85
2023/06/15 05:37:52;;;;;;;4.65;2.85;;;15.60;99.90;;;;;;5100298;27;20041;-85
2023/06/15 05:40:19;;;;;;;8.02;2.90;;;15.70;99.90;;;;;;5117598;27;20082;-85
2023/06/15 05:42:46;;;;;;;4.43;2.78;;;15.80;99.90;;;;;;5113142;28;20067;-85
2023/06/15 05:45:12;;;;;;;7.45;2.90;;;15.90;99.90;;;;;;5101160;28;20200;-85
2023/06/15 05:47:39;;;;;;;6.45;3.08;;;16.00;99.90;;;;;;5079949;28;20047;-85
2023/06/15 05:50:06;;;;;;;5.10;3.00;;;16.00;99.90;;;;;;5081621;27;20040;-85
2023/06/15 05:52:33;;;;;;;4.75;2.83;;;16.10;99.90;;;;;;5100153;27;20051;-85
2023/06/15 05:55:00;;;;;;;7.05;3.03;;;16.20;99.90;;;;;;5118816;28;20062;-85
2023/06/15 05:57:26;;;;;;;6.28;3.20;;;16.30;99.90;;;;;;5079741;28;20040;-85
2023/06/15 05:59:53;;;;;;;5.53;2.95;;;16.30;99.90;;;;;;5079992;28;20403;-85
2023/06/15 06:02:20;;;;;;;7.97;2.85;;;16.40;99.90;;;;;;5079950;28;20040;-85
2023/06/15 06:04:47;;;;;;;5.63;2.70;;;16.50;99.90;;;;;;5096020;28;20408;-85
2023/06/15 06:07:14;;;;;;;6.18;3.03;;;16.50;99.90;;;;;;5080342;28;20039;-85
2023/06/15 06:09:41;;;;;;;5.35;2.63;;;16.70;99.90;;;;;;5098329;27;20031;-86
2023/06/15 06:12:09;;;;;;;5.20;2.72;;;16.70;99.90;;;;;;5104528;28;20442;-86
2023/06/15 06:14:35;;;;;;;4.50;2.75;;;16.80;99.90;;;;;;5113608;28;20103;-85
2023/06/15 06:17:02;;;;;;;10.30;2.80;;;16.90;99.90;;;;;;5079709;28;20119;-85
2023/06/15 06:19:29;;;;;;;5.72;2.83;;;17.00;99.90;;;;;;5106315;27;20046;-85
2023/06/15 06:21:56;;;;;;;4.68;2.72;;;17.10;99.90;;;;;;5092841;28;20027;-85
2023/06/15 06:24:23;;;;;;;7.60;3.33;;;17.10;99.90;;;;;;5093382;28;20031;-85
2023/06/15 06:26:49;;;;;;;5.40;2.90;;;17.20;99.90;;;;;;5081308;28;20058;-85
2023/06/15 06:29:16;;;;;;;7.40;3.15;;;17.40;99.90;;;;;;5097496;28;20555;-85
2023/06/15 06:31:43;;;;;;;4.85;2.70;;;17.50;99.90;;;;;;5108139;28;20058;-85
2023/06/15 06:34:10;;;;;;;6.90;3.20;;;17.50;99.90;;;;;;5108315;28;20067;-86
2023/06/15 06:36:39;;;;;;;6.35;2.63;;;17.60;99.90;;;;;;5104331;28;20114;-85
2023/06/15 06:39:06;;;;;;;8.52;2.80;;;17.70;99.90;;;;;;5112829;28;20445;-84
2023/06/15 06:41:36;;;;;;;6.07;2.50;;;17.80;99.90;;;;;;5095957;28;20051;-84
2023/06/15 06:44:03;;;;;;;9.30;2.45;;;18.00;99.90;;;;;;5095792;28;20078;-85
2023/06/15 06:46:30;;;;;;;7.47;2.65;;;18.20;99.90;;;;;;5105332;28;20062;-85
2023/06/15 06:48:56;;;;;;;7.93;2.60;;;18.20;99.90;;;;;;5092345;28;20047;-84
2023/06/15 06:51:23;;;;;;;4.35;2.28;;;18.40;99.90;;;;;;5126522;28;20046;-85
2023/06/15 06:53:50;;;;;;;4.57;2.20;;;18.40;99.90;;;;;;5108286;28;20090;-85
2023/06/15 06:56:16;;;;;;;4.22;2.30;;;18.60;99.90;;;;;;5095099;28;20042;-85
2023/06/15 06:58:43;;;;;;;5.65;2.92;;;18.70;99.90;;;;;;5109128;28;20085;-85
2023/06/15 07:01:10;;;;;;;6.90;2.75;;;18.80;99.90;;;;;;5095965;28;20040;-85
2023/06/15 07:03:39;;;;;;;7.00;2.70;;;18.90;99.90;;;;;;5112702;28;20384;-85
2023/06/15 07:06:05;;;;;;;6.20;2.60;;;19.10;99.90;;;;;;5112856;28;20099;-85
2023/06/15 07:08:32;;;;;;;5.47;2.90;;;19.10;99.90;;;;;;5110936;28;20050;-85
2023/06/15 07:10:59;;;;;;;5.28;2.70;;;19.30;99.90;;;;;;5096761;27;20514;-85
2023/06/15 07:13:26;;;;;;;5.28;2.60;;;19.40;99.90;;;;;;5112988;28;20105;-86
2023/06/15 07:15:54;;;;;;;7.65;2.63;;;19.50;99.90;;;;;;5082429;28;20658;-85
2023/06/15 07:18:21;;;;;;;4.40;2.22;;;19.60;99.90;;;;;;5100528;28;20050;-86
2023/06/15 07:20:53;;;;;;;5.45;2.50;;;19.70;99.90;;;;;;5083887;28;20127;-87
2023/06/15 07:23:23;;;;;;;4.50;2.53;;;19.90;99.90;;;;;;5106296;27;20547;-87
2023/06/15 07:25:52;;;;;;;5.28;2.72;;;20.00;99.90;;;;;;5127249;28;20123;-84
2023/06/15 07:28:19;;;;;;;6.15;3.00;;;20.10;99.90;;;;;;5100719;28;20399;-83
2023/06/15 07:30:50;;;;;;;5.97;2.15;;;20.20;99.90;;;;;;5123949;27;20496;-84
2023/06/15 07:33:17;;;;;;;6.80;2.55;;;20.30;99.90;;;;;;5136208;27;20142;-84
2023/06/15 07:35:44;;;;;;;7.47;2.60;;;20.30;99.90;;;;;;5136226;27;20518;-84
2023/06/15 07:38:13;;;;;;;5.80;2.47;;;20.50;99.90;;;;;;5119859;27;20043;-84
2023/06/15 07:40:40;;;;;;;6.05;2.28;;;20.60;99.90;;;;;;5135732;27;20046;-83
2023/06/15 07:43:06;;;;;;;5.22;2.40;;;20.80;99.90;;;;;;5152988;27;20399;-85
2023/06/15 07:45:33;;;;;;;7.22;2.30;;;20.90;99.90;;;;;;5102030;27;20050;-84
2023/06/15 07:47:59;;;;;;;5.03;2.80;;;21.00;99.90;;;;;;5099399;27;20092;-84
2023/06/15 07:50:28;;;;;;;6.07;2.53;;;21.10;99.90;;;;;;5119496;27;20047;-84
2023/06/15 07:52:58;;;;;;;5.35;2.50;;;21.20;99.90;;;;;;5112405;28;20051;-85
2023/06/15 07:55:25;;;;;;;4.97;2.50;;;21.30;99.90;;;;;;5098017;28;20040;-85
2023/06/15 07:57:52;;;;;;;5.43;2.70;;;21.30;99.90;;;;;;5098574;28;20039;-84
2023/06/15 08:00:19;;;;;;;5.65;2.58;;;21.50;99.90;;;;;;5098776;28;20739;-85
2023/06/15 08:02:46;;;;;;;7.43;2.30;;;21.60;99.90;;;;;;5114766;28;20162;-85
2023/06/15 08:05:13;;;;;;;8.50;2.38;;;21.70;99.90;;;;;;5096960;28;20177;-85
2023/06/15 08:07:40;;;;;;;6.30;2.28;;;21.90;99.90;;;;;;5118836;27;20641;-86
2023/06/15 08:10:07;;;;;;;6.45;2.60;;;21.90;99.90;;;;;;5118473;27;20092;-85
2023/06/15 08:12:33;;;;;;;7.03;2.40;;;22.10;99.90;;;;;;5102191;27;20088;-84
2023/06/15 08:15:00;;;;;;;4.18;2.20;;;22.20;99.90;;;;;;5118871;27;20475;-84
2023/06/15 08:17:27;;;;;;;4.32;2.33;;;22.20;99.90;;;;;;5117843;27;20031;-85
2023/06/15 08:19:53;;;;;;;7.07;2.30;;;22.30;99.90;;;;;;5118568;27;20039;-84
2023/06/15 08:22:20;;;;;;;5.25;2.38;;;22.40;99.60;;;;;;5100342;28;20035;-85
2023/06/15 08:24:48;;;;;;;7.45;2.40;;;22.50;99.40;;;;;;5118296;27;20074;-85
2023/06/15 08:27:15;;;;;;;8.35;2.50;;;22.50;99.30;;;;;;5117850;27;20043;-85
2023/06/15 08:29:43;;;;;;;6.85;2.90;;;22.60;99.20;;;;;;5117956;27;20125;-83
2023/06/15 08:32:13;;;;;;;3.90;2.15;;;22.70;99.00;;;;;;5134473;27;20035;-84
2023/06/15 08:34:44;;;;;;;8.48;2.70;;;22.80;98.70;;;;;;5118901;27;20035;-88
2023/06/15 08:37:12;;;;;;;13.23;2.50;;;22.90;97.70;;;;;;5134462;27;20875;-83
2023/06/15 08:39:39;;;;;;;6.72;2.53;;;22.90;98.10;;;;;;5097622;28;20475;-82
2023/06/15 08:42:07;;;;;;;5.88;2.63;;;23.10;97.70;;;;;;5097731;28;20067;-82
2023/06/15 08:44:34;;;;;;;6.85;2.13;;;23.20;97.40;;;;;;5114185;28;20127;-82
2023/06/15 08:47:06;;;;;;;6.72;2.60;;;23.30;97.10;;;;;;5087309;28;20043;-82
2023/06/15 08:49:33;;;;;;;6.00;2.60;;;23.40;96.90;;;;;;5130782;28;20392;-82
2023/06/15 08:52:02;;;;;;;6.03;2.30;;;23.50;96.80;;;;;;5097663;28;20093;-82
2023/06/15 08:54:33;;;;;;;7.40;2.67;;;23.50;96.80;;;;;;5133684;27;20551;-82
2023/06/15 08:57:00;;;;;;;5.40;2.75;;;23.70;96.50;;;;;;5134435;27;20096;-81
2023/06/15 08:59:29;;;;;;;5.50;2.63;;;23.80;96.50;;;;;;5151396;27;20095;-81
2023/06/15 09:01:57;;;;;;;5.47;2.15;;;23.80;96.10;;;;;;5134071;27;20062;-82
2023/06/15 09:04:26;;;;;;;4.47;2.25;;;23.90;96.10;;;;;;5150878;27;20039;-83
2023/06/15 09:06:57;;;;;;;5.55;2.17;;;24.00;96.00;;;;;;5134119;27;20150;-82
2023/06/15 09:09:25;;;;;;;5.15;2.80;;;24.10;95.90;;;;;;5138712;28;20416;-82
2023/06/15 09:11:52;;;;;;;4.13;2.47;;;24.30;95.80;;;;;;5096933;28;20507;-82
2023/06/15 09:14:19;;;;;;;5.82;2.67;;;24.40;95.50;;;;;;5080131;28;20132;-81
2023/06/15 09:16:48;;;;;;;4.85;2.55;;;24.50;95.10;;;;;;5080299;28;20042;-82
2023/06/15 09:19:16;;;;;;;5.32;2.00;;;24.50;94.70;;;;;;5126031;27;20062;-81
2023/06/15 09:21:50;;;;;;;5.15;2.45;;;24.40;94.40;;;;;;5117184;27;20222;-81
2023/06/15 09:24:18;;;;;;;4.78;2.30;;;24.50;93.20;;;;;;5133928;27;20103;-81
2023/06/15 09:26:45;;;;;;;5.38;2.30;;;24.70;94.10;;;;;;5117465;27;20042;-82
2023/06/15 09:29:12;;;;;;;5.85;2.17;;;24.80;94.20;;;;;;5116569;27;20039;-82
2023/06/15 09:31:40;;;;;;;5.32;2.38;;;25.00;93.80;;;;;;5133436;27;20040;-82
2023/06/15 09:34:12;;;;;;;8.40;2.45;;;25.00;93.50;;;;;;5133365;27;20040;-82
2023/06/15 09:36:48;;;;;;;6.90;2.53;;;25.10;93.00;;;;;;5133832;27;20745;-81
2023/06/15 09:39:22;;;;;;;5.35;2.42;;;25.10;91.50;;;;;;5111312;28;20039;-81
2023/06/15 09:41:53;;;;;;;4.10;2.33;;;25.10;93.20;;;;;;5097545;28;20188;-82
2023/06/15 09:44:22;;;;;;;7.57;2.20;;;25.20;92.30;;;;;;5112485;28;20134;-81
2023/06/15 09:46:53;;;;;;;4.25;2.22;;;25.30;92.20;;;;;;5133150;28;20499;-82
2023/06/15 09:49:25;;;;;;;4.07;2.17;;;25.40;91.60;;;;;;5118473;27;20043;-82
2023/06/15 09:51:53;;;;;;;4.40;2.15;;;25.60;91.70;;;;;;5144328;27;20067;-82
2023/06/15 09:54:22;;;;;;;5.80;2.20;;;25.70;91.80;;;;;;5132379;27;20047;-81
2023/06/15 09:56:51;;;;;;;4.72;2.35;;;25.70;91.30;;;;;;5150197;27;20043;-82
2023/06/15 09:59:18;;;;;;;5.45;2.20;;;25.70;91.10;;;;;;5132902;27;20492;-82
2023/06/15 10:01:48;;;;;;;6.70;2.53;;;25.80;90.80;;;;;;5113373;28;20122;-81
2023/06/15 10:04:24;;;;;;;5.72;2.20;;;25.80;90.60;;;;;;5112809;28;20042;-82
2023/06/15 10:07:13;;;;;;;6.97;2.45;;;25.90;90.50;;;;;;5130979;27;20066;-81
2023/06/15 10:09:48;;;;;;;4.65;2.35;;;26.00;90.10;;;;;;5133183;27;20081;-81
2023/06/15 10:12:22;;;;;;;;;;;26.20;90.50;;;;;;5133362;27;20512;-81
2023/06/15 10:14:58;;;;;;;6.30;2.50;;;26.10;89.00;;;;;;5131613;27;19915;-81
2023/06/15 10:17:32;;;;;;;4.97;2.30;;;26.20;89.80;;;;;;5114506;28;20065;-80
2023/06/15 10:20:10;;;;;;;7.38;2.40;;;26.20;89.60;;;;;;5118290;27;20191;-80
2023/06/15 10:22:57;;;;;;;6.72;2.50;;;26.30;87.90;;;;;;5117601;27;20407;-81
2023/06/15 10:25:24;;;;;;;7.90;2.25;;;26.30;87.70;;;;;;5119940;27;20571;-81
2023/06/15 10:27:52;;;;;;;6.25;2.00;;;26.40;89.20;;;;;;5119653;27;20047;-80
2023/06/15 10:30:35;;;;;;;10.23;2.63;;;26.30;88.50;;;;;;5113818;28;20706;-80
2023/06/15 10:33:26;;;;;;;4.75;2.20;;;26.40;86.70;;;;;;5138259;28;20042;-80
2023/06/15 10:36:03;;;;;;;5.38;2.40;;;26.50;86.80;;;;;;5118879;28;20043;-81
2023/06/15 10:38:47;;;;;;;7.18;2.47;;;26.60;86.70;;;;;;5112309;28;20039;-80
2023/06/15 10:41:15;;;;;;;5.38;2.53;;;26.60;82.30;;;;;;5126211;28;20043;-81
2023/06/15 10:43:59;;;;;;;6.43;2.13;;;26.70;86.10;;;;;;5118715;28;20118;-81
2023/06/15 10:46:33;;;;;;;5.97;2.17;;;26.70;84.10;;;;;;5115807;28;20040;-80
2023/06/15 10:49:04;;;;;;;3.90;2.08;;;26.70;84.90;;;;;;5117438;28;20043;-81
2023/06/15 10:51:36;;;;;;;4.90;2.28;;;26.70;84.90;;;;;;5133030;28;20126;-81
2023/06/15 10:54:04;;;;;;;4.65;2.40;;;26.90;84.20;;;;;;5087971;27;20047;-81
2023/06/15 10:56:31;;;;;;;6.15;2.42;;;26.90;84.10;;;;;;5125127;27;20087;-82
2023/06/15 10:59:00;;;;;;;4.97;1.92;;;26.90;84.00;;;;;;5129508;28;20039;-82
2023/06/15 11:01:29;;;;;;;10.02;2.08;;;26.90;82.50;;;;;;5139301;27;20127;-82
2023/06/15 11:03:56;;;;;;;5.03;2.15;;;26.90;82.90;;;;;;5121666;27;20491;-80
2023/06/15 11:06:36;;;;;;;4.43;2.17;;;27.00;83.70;;;;;;5140658;28;20051;-80
2023/06/15 11:09:07;;;;;;;4.55;2.25;;;27.00;80.60;;;;;;5132773;28;20039;-80
2023/06/15 11:11:36;;;;;;;5.88;2.58;;;27.10;82.60;;;;;;5132454;28;20105;-81
2023/06/15 11:14:05;;;;;;;7.38;2.30;;;27.20;82.40;;;;;;5152968;27;20115;-81
2023/06/15 11:16:34;;;;;;;5.32;2.20;;;27.20;83.10;;;;;;5151443;27;20031;-81
2023/06/15 11:19:15;;;;;;;4.72;2.20;;;27.20;83.60;;;;;;5099269;28;20035;-81
2023/06/15 11:21:59;;;;;;;5.55;2.03;;;27.30;78.70;;;;;;5132735;28;20407;-82
2023/06/15 11:24:34;;;;;;;6.10;2.30;;;27.30;79.90;;;;;;5131793;27;20035;-81
2023/06/15 11:27:03;;;;;;;3.70;2.17;;;27.30;80.50;;;;;;5136158;27;20495;-81
2023/06/15 11:29:33;;;;;;;5.95;2.40;;;27.30;81.20;;;;;;5119232;27;20093;-81
2023/06/15 11:32:04;;;;;;;6.88;2.20;;;27.40;81.20;;;;;;5135625;27;20050;-81
2023/06/15 11:34:31;;;;;;;5.15;2.17;;;27.40;80.40;;;;;;5120774;28;20035;-82
2023/06/15 11:37:02;;;;;;;5.68;2.08;;;27.40;80.80;;;;;;5144570;27;20039;-81
2023/06/15 11:39:31;;;;;;;3.45;2.20;;;27.40;81.20;;;;;;5104376;28;20097;-81
2023/06/15 11:41:58;;;;;;;5.65;2.10;;;27.30;80.10;;;;;;5132277;28;20043;-81
2023/06/15 11:44:29;;;;;;;4.95;2.30;;;27.20;80.10;;;;;;5126122;27;20075;-81
2023/06/15 11:47:00;;;;;;;4.20;2.00;;;27.20;79.70;;;;;;5135791;27;20091;-82
2023/06/15 11:49:37;;;;;;;4.13;2.35;;;27.20;81.00;;;;;;5135483;27;20483;-81
2023/06/15 11:52:05;;;;;;;4.95;2.40;;;27.40;80.40;;;;;;5135624;27;20139;-81
2023/06/15 11:54:32;;;;;;;20.45;3.00;;;27.40;79.90;;;;;;5135124;27;20130;-81
2023/06/15 11:57:00;;;;;;;4.32;2.40;;;27.30;79.10;;;;;;5135387;27;20038;-81
2023/06/15 11:59:27;;;;;;;6.20;2.25;;;27.40;79.20;;;;;;5118543;27;20035;-81
2023/06/15 12:01:58;;;;;;;8.77;2.40;;;27.40;79.70;;;;;;5119050;27;20043;-82
2023/06/15 12:04:30;;;;;;;7.53;2.50;;;27.40;79.00;;;;;;5134819;27;20031;-82
2023/06/15 12:07:05;;;;;;;4.18;2.30;;;27.40;79.00;;;;;;5119128;27;20127;-81
2023/06/15 12:09:32;;;;;;;;;;;27.30;78.70;;;;;;5135399;27;20045;-81
2023/06/15 12:11:58;;;;;;;9.80;2.47;;;27.50;79.00;;;;;;5103962;28;19919;-81
2023/06/15 12:14:25;;;;;;;4.10;2.10;;;27.50;79.20;;;;;;5097628;28;20395;-81
2023/06/15 12:16:53;;;;;;;4.25;1.95;;;27.60;79.10;;;;;;5086655;27;20031;-81
2023/06/15 12:19:20;;;;;;;4.72;2.10;;;27.70;78.50;;;;;;5135175;27;20039;-82
2023/06/15 12:21:47;;;;;;;3.40;2.00;;;27.70;78.20;;;;;;5118215;27;20407;-82
2023/06/15 12:24:15;;;;;;;7.32;2.42;;;27.70;78.00;;;;;;5118176;27;20035;-81
2023/06/15 12:27:01;;;;;;;3.80;2.10;;;27.60;77.70;;;;;;5123130;27;20081;-81
2023/06/15 12:29:28;;;;;;;4.55;2.05;;;27.60;76.20;;;;;;5118200;27;20490;-81
2023/06/15 12:31:55;;;;;;;4.88;2.50;;;27.60;77.30;;;;;;5100179;27;20054;-81
2023/06/15 12:34:24;;;;;;;5.95;2.28;;;27.60;77.00;;;;;;5102403;27;20062;-82
2023/06/15 12:36:52;;;;;;;7.25;2.30;;;27.60;76.30;;;;;;5128806;27;20038;-82
2023/06/15 12:39:19;;;;;;;5.28;2.22;;;27.30;75.70;;;;;;5119402;28;20031;-81
2023/06/15 12:41:45;;;;;;;4.07;1.98;;;27.40;76.40;;;;;;5097578;28;20039;-82
2023/06/15 12:44:12;;;;;;;5.93;2.20;;;27.50;76.70;;;;;;5097307;28;20043;-81
2023/06/15 12:46:39;;;;;;;7.15;2.40;;;27.50;76.40;;;;;;5097389;28;20368;-81
2023/06/15 12:49:07;;;;;;;4.00;2.30;;;27.50;76.10;;;;;;5127311;27;20039;-81
2023/06/15 12:51:34;;;;;;;7.00;2.40;;;27.50;75.60;;;;;;5087027;28;20047;-81
2023/06/15 12:54:03;;;;;;;8.80;2.50;;;27.60;76.30;;;;;;5145534;27;20089;-81
2023/06/15 12:56:32;;;;;;;4.30;2.40;;;27.60;76.80;;;;;;5131115;27;20035;-80